CheckWX is a tool to help pilots better visualize weather data.  It is not intended as a substitute for an official pre-flight weather briefing.

23:26:28 UTC

KTRM TAF
Jacqueline Cochran Regional Airport
Palm Springs, California, USA
KTRM 072337Z 0800/0824 VRB04KT P6SM SKC FM080400 31011G18KT P6SM SKC FM081000 32006KT P6SM SKC FM081800 14007KT P6SM SKC

Jul-8@
00:00 UTC

Jul-8 @ 00:00 UTC

Jul-8@
04:00 UTC

Jul-8 @ 04:00 UTC

TAF KTRM 072337Z 0800/0824 VRB04KT P6SM SKC

Expired

Wind
  • Variable at 4 KTS
Cloud Levels
  • Clear skies

Jul-8@
04:00 UTC

Jul-8 @ 04:00 UTC

Jul-8@
10:00 UTC

Jul-8 @ 10:00 UTC

FM080400 31011G18KT P6SM SKC

Expired

Wind
  • 310° at 11 KTS
  • {Gusting to 18 KTS
Cloud Levels
  • Clear skies

Jul-8@
10:00 UTC

Jul-8 @ 10:00 UTC

Jul-8@
18:00 UTC

Jul-8 @ 18:00 UTC

FM081000 32006KT P6SM SKC

Expired

Wind
  • 320° at 6 KTS
Cloud Levels
  • Clear skies

Jul-8@
18:00 UTC

Jul-8 @ 18:00 UTC

Jul-9@
00:00 UTC

Jul-9 @ 00:00 UTC

FM081800 14007KT P6SM SKC

From

From Standard forecast or significant change

Wind
  • 140° at 7 KTS
Cloud Levels
  • Clear skies